sensor_id;sensor_type;location;lat;lon;timestamp;P1;durP1;ratioP1;P2;durP2;ratioP2
50968;SDS011;36982;51.474;7.228;2022-09-09T00:04:09;2.33;;;1.30;;
50968;SDS011;36982;51.474;7.228;2022-09-09T00:06:43;3.30;;;1.40;;
50968;SDS011;36982;51.474;7.228;2022-09-09T00:09:16;3.90;;;1.30;;
50968;SDS011;36982;51.474;7.228;2022-09-09T00:11:48;1.93;;;1.20;;
50968;SDS011;36982;51.474;7.228;2022-09-09T00:14:53;7.07;;;1.13;;
50968;SDS011;36982;51.474;7.228;2022-09-09T00:28:45;3.43;;;0.93;;
50968;SDS011;36982;51.474;7.228;2022-09-09T00:31:15;2.57;;;1.00;;
50968;SDS011;36982;51.474;7.228;2022-09-09T00:33:47;3.40;;;1.03;;
50968;SDS011;36982;51.474;7.228;2022-09-09T00:36:18;3.60;;;0.93;;
50968;SDS011;36982;51.474;7.228;2022-09-09T00:38:51;1.90;;;1.00;;
50968;SDS011;36982;51.474;7.228;2022-09-09T00:41:22;2.23;;;1.00;;
50968;SDS011;36982;51.474;7.228;2022-09-09T00:44:31;1.53;;;0.93;;
50968;SDS011;36982;51.474;7.228;2022-09-09T00:49:49;1.07;;;0.80;;
50968;SDS011;36982;51.474;7.228;2022-09-09T00:52:51;2.73;;;0.90;;
50968;SDS011;36982;51.474;7.228;2022-09-09T00:58:10;2.00;;;1.00;;
50968;SDS011;36982;51.474;7.228;2022-09-09T01:00:40;1.23;;;1.00;;
50968;SDS011;36982;51.474;7.228;2022-09-09T01:11:05;1.90;;;1.03;;
50968;SDS011;36982;51.474;7.228;2022-09-09T01:13:39;1.70;;;1.00;;
50968;SDS011;36982;51.474;7.228;2022-09-09T01:16:07;2.27;;;1.20;;
50968;SDS011;36982;51.474;7.228;2022-09-09T01:18:37;3.10;;;1.10;;
50968;SDS011;36982;51.474;7.228;2022-09-09T01:26:34;3.33;;;1.90;;
50968;SDS011;36982;51.474;7.228;2022-09-09T01:29:15;3.67;;;1.80;;
50968;SDS011;36982;51.474;7.228;2022-09-09T01:34:17;4.40;;;2.00;;
50968;SDS011;36982;51.474;7.228;2022-09-09T01:36:44;2.40;;;2.10;;
50968;SDS011;36982;51.474;7.228;2022-09-09T01:39:18;2.50;;;2.00;;
50968;SDS011;36982;51.474;7.228;2022-09-09T01:41:45;3.77;;;2.30;;
50968;SDS011;36982;51.474;7.228;2022-09-09T01:44:10;4.83;;;2.60;;
50968;SDS011;36982;51.474;7.228;2022-09-09T01:46:36;2.70;;;2.50;;
50968;SDS011;36982;51.474;7.228;2022-09-09T01:49:03;2.80;;;2.43;;
50968;SDS011;36982;51.474;7.228;2022-09-09T01:51:31;5.07;;;2.77;;
50968;SDS011;36982;51.474;7.228;2022-09-09T01:53:57;4.30;;;2.70;;
50968;SDS011;36982;51.474;7.228;2022-09-09T01:56:29;3.43;;;2.60;;
50968;SDS011;36982;51.474;7.228;2022-09-09T02:07:06;4.60;;;2.87;;
50968;SDS011;36982;51.474;7.228;2022-09-09T02:09:50;6.20;;;2.57;;
50968;SDS011;36982;51.474;7.228;2022-09-09T02:12:22;6.57;;;3.37;;
50968;SDS011;36982;51.474;7.228;2022-09-09T02:14:51;3.73;;;2.43;;
50968;SDS011;36982;51.474;7.228;2022-09-09T02:17:28;5.70;;;2.50;;
50968;SDS011;36982;51.474;7.228;2022-09-09T02:20:06;4.23;;;2.73;;
50968;SDS011;36982;51.474;7.228;2022-09-09T02:22:35;4.00;;;2.50;;
50968;SDS011;36982;51.474;7.228;2022-09-09T02:25:05;5.17;;;2.90;;
50968;SDS011;36982;51.474;7.228;2022-09-09T02:27:33;6.23;;;2.90;;
50968;SDS011;36982;51.474;7.228;2022-09-09T02:29:59;5.30;;;2.40;;
50968;SDS011;36982;51.474;7.228;2022-09-09T02:32:27;3.93;;;2.50;;
50968;SDS011;36982;51.474;7.228;2022-09-09T02:35:00;4.60;;;2.60;;
50968;SDS011;36982;51.474;7.228;2022-09-09T02:37:34;4.60;;;2.67;;
50968;SDS011;36982;51.474;7.228;2022-09-09T02:40:04;6.07;;;2.90;;
50968;SDS011;36982;51.474;7.228;2022-09-09T02:42:31;3.40;;;2.30;;
50968;SDS011;36982;51.474;7.228;2022-09-09T02:45:03;6.53;;;2.90;;
50968;SDS011;36982;51.474;7.228;2022-09-09T02:50:01;5.77;;;2.63;;
50968;SDS011;36982;51.474;7.228;2022-09-09T02:56:00;3.37;;;2.30;;
50968;SDS011;36982;51.474;7.228;2022-09-09T02:58:30;3.93;;;2.37;;
50968;SDS011;36982;51.474;7.228;2022-09-09T03:00:56;2.93;;;2.03;;
50968;SDS011;36982;51.474;7.228;2022-09-09T03:03:23;4.33;;;2.50;;
50968;SDS011;36982;51.474;7.228;2022-09-09T03:05:49;3.07;;;1.80;;
50968;SDS011;36982;51.474;7.228;2022-09-09T03:08:15;5.70;;;2.70;;
50968;SDS011;36982;51.474;7.228;2022-09-09T03:10:41;4.97;;;2.17;;
50968;SDS011;36982;51.474;7.228;2022-09-09T03:13:06;4.73;;;2.30;;
50968;SDS011;36982;51.474;7.228;2022-09-09T03:15:33;3.63;;;1.77;;
50968;SDS011;36982;51.474;7.228;2022-09-09T03:17:59;4.33;;;2.10;;
50968;SDS011;36982;51.474;7.228;2022-09-09T03:20:25;4.20;;;2.10;;
50968;SDS011;36982;51.474;7.228;2022-09-09T03:22:52;4.47;;;1.93;;
50968;SDS011;36982;51.474;7.228;2022-09-09T03:25:18;3.40;;;1.80;;
50968;SDS011;36982;51.474;7.228;2022-09-09T03:27:44;3.53;;;2.10;;
50968;SDS011;36982;51.474;7.228;2022-09-09T03:30:10;5.07;;;2.03;;
50968;SDS011;36982;51.474;7.228;2022-09-09T03:32:36;6.10;;;2.00;;
50968;SDS011;36982;51.474;7.228;2022-09-09T03:35:02;4.73;;;2.17;;
50968;SDS011;36982;51.474;7.228;2022-09-09T03:37:28;2.13;;;1.70;;
50968;SDS011;36982;51.474;7.228;2022-09-09T03:39:53;2.73;;;1.60;;
50968;SDS011;36982;51.474;7.228;2022-09-09T03:42:19;2.73;;;1.80;;
50968;SDS011;36982;51.474;7.228;2022-09-09T03:44:45;3.60;;;1.70;;
50968;SDS011;36982;51.474;7.228;2022-09-09T03:47:18;2.20;;;1.73;;
50968;SDS011;36982;51.474;7.228;2022-09-09T03:49:46;4.93;;;2.10;;
50968;SDS011;36982;51.474;7.228;2022-09-09T03:52:13;2.00;;;1.70;;
50968;SDS011;36982;51.474;7.228;2022-09-09T03:54:40;4.13;;;1.90;;
50968;SDS011;36982;51.474;7.228;2022-09-09T03:57:07;2.77;;;1.80;;
50968;SDS011;36982;51.474;7.228;2022-09-09T03:59:34;2.87;;;1.70;;
50968;SDS011;36982;51.474;7.228;2022-09-09T04:02:00;3.00;;;1.50;;
50968;SDS011;36982;51.474;7.228;2022-09-09T04:04:26;3.90;;;2.00;;
50968;SDS011;36982;51.474;7.228;2022-09-09T04:06:52;4.90;;;1.70;;
50968;SDS011;36982;51.474;7.228;2022-09-09T04:09:18;2.67;;;1.60;;
50968;SDS011;36982;51.474;7.228;2022-09-09T04:11:44;4.60;;;1.60;;
50968;SDS011;36982;51.474;7.228;2022-09-09T04:14:11;3.47;;;1.57;;
50968;SDS011;36982;51.474;7.228;2022-09-09T04:16:37;3.53;;;1.70;;
50968;SDS011;36982;51.474;7.228;2022-09-09T04:19:03;4.17;;;1.63;;
50968;SDS011;36982;51.474;7.228;2022-09-09T04:21:31;5.47;;;1.40;;
50968;SDS011;36982;51.474;7.228;2022-09-09T04:23:57;2.97;;;1.77;;
50968;SDS011;36982;51.474;7.228;2022-09-09T04:26:23;3.60;;;1.60;;
50968;SDS011;36982;51.474;7.228;2022-09-09T04:28:48;3.77;;;1.70;;
50968;SDS011;36982;51.474;7.228;2022-09-09T04:31:15;3.03;;;1.70;;
50968;SDS011;36982;51.474;7.228;2022-09-09T04:33:44;3.27;;;1.87;;
50968;SDS011;36982;51.474;7.228;2022-09-09T04:36:11;3.50;;;1.50;;
50968;SDS011;36982;51.474;7.228;2022-09-09T04:38:37;4.40;;;1.60;;
50968;SDS011;36982;51.474;7.228;2022-09-09T04:41:03;3.60;;;1.50;;
50968;SDS011;36982;51.474;7.228;2022-09-09T04:43:29;3.73;;;1.37;;
50968;SDS011;36982;51.474;7.228;2022-09-09T04:45:55;5.83;;;1.87;;
50968;SDS011;36982;51.474;7.228;2022-09-09T04:48:21;2.07;;;1.60;;
50968;SDS011;36982;51.474;7.228;2022-09-09T04:50:54;3.97;;;1.50;;
50968;SDS011;36982;51.474;7.228;2022-09-09T04:53:20;2.73;;;1.70;;
50968;SDS011;36982;51.474;7.228;2022-09-09T04:55:47;3.10;;;1.63;;
50968;SDS011;36982;51.474;7.228;2022-09-09T04:58:12;4.83;;;1.77;;
50968;SDS011;36982;51.474;7.228;2022-09-09T05:00:38;4.00;;;1.60;;
50968;SDS011;36982;51.474;7.228;2022-09-09T05:03:07;3.40;;;1.90;;
50968;SDS011;36982;51.474;7.228;2022-09-09T05:05:34;4.83;;;1.97;;
50968;SDS011;36982;51.474;7.228;2022-09-09T05:08:00;3.80;;;1.80;;
50968;SDS011;36982;51.474;7.228;2022-09-09T05:10:30;4.33;;;2.17;;
50968;SDS011;36982;51.474;7.228;2022-09-09T05:12:57;3.63;;;2.30;;
50968;SDS011;36982;51.474;7.228;2022-09-09T05:15:23;4.80;;;1.90;;
50968;SDS011;36982;51.474;7.228;2022-09-09T05:17:49;3.40;;;1.90;;
50968;SDS011;36982;51.474;7.228;2022-09-09T05:20:17;5.47;;;2.30;;
50968;SDS011;36982;51.474;7.228;2022-09-09T05:22:43;4.57;;;1.90;;
50968;SDS011;36982;51.474;7.228;2022-09-09T05:25:09;3.57;;;1.83;;
50968;SDS011;36982;51.474;7.228;2022-09-09T05:27:35;3.97;;;2.10;;
50968;SDS011;36982;51.474;7.228;2022-09-09T05:30:00;4.93;;;2.10;;
50968;SDS011;36982;51.474;7.228;2022-09-09T05:32:26;3.47;;;1.73;;
50968;SDS011;36982;51.474;7.228;2022-09-09T05:34:52;5.23;;;2.13;;
50968;SDS011;36982;51.474;7.228;2022-09-09T05:37:17;3.20;;;1.90;;
50968;SDS011;36982;51.474;7.228;2022-09-09T05:39:43;6.23;;;2.17;;
50968;SDS011;36982;51.474;7.228;2022-09-09T05:42:09;6.83;;;2.40;;
50968;SDS011;36982;51.474;7.228;2022-09-09T05:44:35;5.40;;;1.97;;
50968;SDS011;36982;51.474;7.228;2022-09-09T05:47:00;5.17;;;2.03;;
50968;SDS011;36982;51.474;7.228;2022-09-09T05:49:26;7.73;;;3.30;;
50968;SDS011;36982;51.474;7.228;2022-09-09T05:51:52;10.53;;;6.13;;
50968;SDS011;36982;51.474;7.228;2022-09-09T05:54:18;8.43;;;3.73;;
50968;SDS011;36982;51.474;7.228;2022-09-09T05:56:43;4.80;;;2.10;;
50968;SDS011;36982;51.474;7.228;2022-09-09T05:59:09;4.73;;;2.23;;
50968;SDS011;36982;51.474;7.228;2022-09-09T06:01:36;6.40;;;2.00;;
50968;SDS011;36982;51.474;7.228;2022-09-09T06:04:05;5.73;;;2.30;;
50968;SDS011;36982;51.474;7.228;2022-09-09T06:06:33;7.33;;;2.23;;
50968;SDS011;36982;51.474;7.228;2022-09-09T06:09:04;6.37;;;2.30;;
50968;SDS011;36982;51.474;7.228;2022-09-09T06:11:34;7.43;;;2.30;;
50968;SDS011;36982;51.474;7.228;2022-09-09T06:14:00;7.90;;;2.40;;
50968;SDS011;36982;51.474;7.228;2022-09-09T06:16:27;3.80;;;2.07;;
50968;SDS011;36982;51.474;7.228;2022-09-09T06:18:54;4.00;;;2.13;;
50968;SDS011;36982;51.474;7.228;2022-09-09T06:21:22;8.07;;;2.60;;
50968;SDS011;36982;51.474;7.228;2022-09-09T06:23:52;4.10;;;2.17;;
50968;SDS011;36982;51.474;7.228;2022-09-09T06:26:28;8.53;;;3.37;;
50968;SDS011;36982;51.474;7.228;2022-09-09T06:28:56;5.00;;;2.20;;
50968;SDS011;36982;51.474;7.228;2022-09-09T06:31:24;4.73;;;2.17;;
50968;SDS011;36982;51.474;7.228;2022-09-09T06:33:53;6.53;;;2.60;;
50968;SDS011;36982;51.474;7.228;2022-09-09T06:36:41;5.07;;;1.73;;
50968;SDS011;36982;51.474;7.228;2022-09-09T06:39:06;10.63;;;3.30;;
50968;SDS011;36982;51.474;7.228;2022-09-09T06:41:33;4.60;;;2.00;;
50968;SDS011;36982;51.474;7.228;2022-09-09T06:43:59;9.27;;;2.70;;
50968;SDS011;36982;51.474;7.228;2022-09-09T06:46:27;4.50;;;1.97;;
50968;SDS011;36982;51.474;7.228;2022-09-09T06:48:55;4.47;;;1.70;;
50968;SDS011;36982;51.474;7.228;2022-09-09T06:51:24;5.87;;;1.90;;
50968;SDS011;36982;51.474;7.228;2022-09-09T06:53:53;5.17;;;1.80;;
50968;SDS011;36982;51.474;7.228;2022-09-09T06:56:28;7.27;;;2.47;;
50968;SDS011;36982;51.474;7.228;2022-09-09T06:58:54;5.23;;;1.57;;
50968;SDS011;36982;51.474;7.228;2022-09-09T07:01:22;5.53;;;1.63;;
50968;SDS011;36982;51.474;7.228;2022-09-09T07:03:50;4.67;;;1.73;;
50968;SDS011;36982;51.474;7.228;2022-09-09T07:06:21;5.97;;;1.90;;
50968;SDS011;36982;51.474;7.228;2022-09-09T07:08:52;5.87;;;1.70;;
50968;SDS011;36982;51.474;7.228;2022-09-09T07:11:30;4.87;;;1.77;;
50968;SDS011;36982;51.474;7.228;2022-09-09T07:13:58;5.07;;;1.40;;
50968;SDS011;36982;51.474;7.228;2022-09-09T07:16:25;4.40;;;1.80;;
50968;SDS011;36982;51.474;7.228;2022-09-09T07:18:52;4.77;;;1.67;;
50968;SDS011;36982;51.474;7.228;2022-09-09T07:21:22;5.20;;;1.53;;
50968;SDS011;36982;51.474;7.228;2022-09-09T07:23:49;3.13;;;1.53;;
50968;SDS011;36982;51.474;7.228;2022-09-09T07:26:19;1.83;;;1.13;;
50968;SDS011;36982;51.474;7.228;2022-09-09T07:28:46;4.83;;;1.60;;
50968;SDS011;36982;51.474;7.228;2022-09-09T07:31:14;1.80;;;1.00;;
50968;SDS011;36982;51.474;7.228;2022-09-09T07:33:42;5.30;;;1.60;;
50968;SDS011;36982;51.474;7.228;2022-09-09T07:38:39;3.35;;;1.35;;
50968;SDS011;36982;51.474;7.228;2022-09-09T07:41:07;4.90;;;1.30;;
50968;SDS011;36982;51.474;7.228;2022-09-09T07:43:38;3.13;;;1.27;;
50968;SDS011;36982;51.474;7.228;2022-09-09T07:46:05;7.35;;;1.45;;
50968;SDS011;36982;51.474;7.228;2022-09-09T07:48:31;3.40;;;1.10;;
50968;SDS011;36982;51.474;7.228;2022-09-09T07:51:04;4.03;;;1.20;;
50968;SDS011;36982;51.474;7.228;2022-09-09T07:53:32;6.53;;;1.87;;
50968;SDS011;36982;51.474;7.228;2022-09-09T07:56:07;2.77;;;1.60;;
50968;SDS011;36982;51.474;7.228;2022-09-09T07:58:37;5.23;;;1.10;;
50968;SDS011;36982;51.474;7.228;2022-09-09T08:01:12;3.20;;;1.40;;
50968;SDS011;36982;51.474;7.228;2022-09-09T08:03:39;2.47;;;1.20;;
50968;SDS011;36982;51.474;7.228;2022-09-09T08:06:06;6.20;;;1.50;;
50968;SDS011;36982;51.474;7.228;2022-09-09T08:08:33;4.83;;;1.20;;
50968;SDS011;36982;51.474;7.228;2022-09-09T08:11:02;6.70;;;2.10;;
50968;SDS011;36982;51.474;7.228;2022-09-09T08:13:47;6.60;;;1.50;;
50968;SDS011;36982;51.474;7.228;2022-09-09T08:16:15;2.93;;;1.20;;
50968;SDS011;36982;51.474;7.228;2022-09-09T08:18:49;3.33;;;1.53;;
50968;SDS011;36982;51.474;7.228;2022-09-09T08:21:16;3.67;;;1.23;;
50968;SDS011;36982;51.474;7.228;2022-09-09T08:23:43;3.80;;;1.20;;
50968;SDS011;36982;51.474;7.228;2022-09-09T08:26:18;2.67;;;1.60;;
50968;SDS011;36982;51.474;7.228;2022-09-09T08:28:51;4.30;;;1.73;;
50968;SDS011;36982;51.474;7.228;2022-09-09T08:31:20;4.67;;;1.33;;
50968;SDS011;36982;51.474;7.228;2022-09-09T08:33:47;7.47;;;1.43;;
50968;SDS011;36982;51.474;7.228;2022-09-09T08:36:14;3.17;;;1.47;;
50968;SDS011;36982;51.474;7.228;2022-09-09T08:38:42;4.60;;;1.60;;
50968;SDS011;36982;51.474;7.228;2022-09-09T08:44:03;6.03;;;1.58;;
50968;SDS011;36982;51.474;7.228;2022-09-09T08:49:31;3.53;;;1.40;;
50968;SDS011;36982;51.474;7.228;2022-09-09T08:52:37;4.43;;;1.60;;
50968;SDS011;36982;51.474;7.228;2022-09-09T08:57:49;5.20;;;1.90;;
50968;SDS011;36982;51.474;7.228;2022-09-09T09:00:18;3.30;;;1.37;;
50968;SDS011;36982;51.474;7.228;2022-09-09T09:05:19;3.28;;;1.60;;
50968;SDS011;36982;51.474;7.228;2022-09-09T09:08:25;5.85;;;1.90;;
50968;SDS011;36982;51.474;7.228;2022-09-09T09:10:58;4.57;;;2.17;;
50968;SDS011;36982;51.474;7.228;2022-09-09T09:13:34;4.50;;;1.70;;
50968;SDS011;36982;51.474;7.228;2022-09-09T09:16:09;6.07;;;1.77;;
50968;SDS011;36982;51.474;7.228;2022-09-09T09:18:57;4.72;;;1.60;;
50968;SDS011;36982;51.474;7.228;2022-09-09T09:23:58;4.82;;;2.55;;
50968;SDS011;36982;51.474;7.228;2022-09-09T09:26:26;6.43;;;2.37;;
50968;SDS011;36982;51.474;7.228;2022-09-09T09:28:56;4.60;;;2.05;;
50968;SDS011;36982;51.474;7.228;2022-09-09T09:31:24;9.45;;;2.08;;
50968;SDS011;36982;51.474;7.228;2022-09-09T09:33:52;5.05;;;2.28;;
50968;SDS011;36982;51.474;7.228;2022-09-09T09:36:20;4.10;;;1.75;;
50968;SDS011;36982;51.474;7.228;2022-09-09T09:38:58;10.50;;;4.20;;
50968;SDS011;36982;51.474;7.228;2022-09-09T09:41:35;4.28;;;1.50;;
50968;SDS011;36982;51.474;7.228;2022-09-09T09:44:03;5.47;;;2.80;;
50968;SDS011;36982;51.474;7.228;2022-09-09T09:46:30;4.65;;;2.55;;
50968;SDS011;36982;51.474;7.228;2022-09-09T09:49:00;4.87;;;1.70;;
50968;SDS011;36982;51.474;7.228;2022-09-09T09:51:28;4.05;;;1.35;;
50968;SDS011;36982;51.474;7.228;2022-09-09T09:54:31;5.45;;;2.05;;
50968;SDS011;36982;51.474;7.228;2022-09-09T09:57:07;3.78;;;1.55;;
50968;SDS011;36982;51.474;7.228;2022-09-09T09:59:37;3.97;;;1.37;;
50968;SDS011;36982;51.474;7.228;2022-09-09T10:04:38;3.12;;;1.10;;
50968;SDS011;36982;51.474;7.228;2022-09-09T10:07:17;6.30;;;2.40;;
50968;SDS011;36982;51.474;7.228;2022-09-09T10:09:43;3.22;;;1.45;;
50968;SDS011;36982;51.474;7.228;2022-09-09T10:20:42;4.20;;;1.95;;
50968;SDS011;36982;51.474;7.228;2022-09-09T10:31:42;4.30;;;2.15;;
50968;SDS011;36982;51.474;7.228;2022-09-09T10:37:01;5.12;;;2.58;;
50968;SDS011;36982;51.474;7.228;2022-09-09T10:42:14;5.03;;;1.50;;
50968;SDS011;36982;51.474;7.228;2022-09-09T10:53:18;3.55;;;1.30;;
50968;SDS011;36982;51.474;7.228;2022-09-09T10:56:13;4.20;;;1.50;;
50968;SDS011;36982;51.474;7.228;2022-09-09T10:58:53;3.53;;;1.17;;
50968;SDS011;36982;51.474;7.228;2022-09-09T11:01:29;2.65;;;0.95;;
50968;SDS011;36982;51.474;7.228;2022-09-09T11:04:02;3.25;;;1.25;;
50968;SDS011;36982;51.474;7.228;2022-09-09T11:06:39;4.18;;;1.40;;
50968;SDS011;36982;51.474;7.228;2022-09-09T11:09:13;4.00;;;1.00;;
50968;SDS011;36982;51.474;7.228;2022-09-09T11:11:49;2.62;;;1.00;;
50968;SDS011;36982;51.474;7.228;2022-09-09T11:17:09;4.47;;;1.55;;
50968;SDS011;36982;51.474;7.228;2022-09-09T11:19:45;3.30;;;1.17;;
50968;SDS011;36982;51.474;7.228;2022-09-09T11:41:42;2.37;;;1.12;;
50968;SDS011;36982;51.474;7.228;2022-09-09T11:44:11;3.30;;;1.23;;
50968;SDS011;36982;51.474;7.228;2022-09-09T11:46:42;3.72;;;1.65;;
50968;SDS011;36982;51.474;7.228;2022-09-09T11:49:26;4.47;;;2.00;;
50968;SDS011;36982;51.474;7.228;2022-09-09T11:51:51;3.80;;;1.75;;
50968;SDS011;36982;51.474;7.228;2022-09-09T11:56:54;3.00;;;1.15;;
50968;SDS011;36982;51.474;7.228;2022-09-09T11:59:21;4.00;;;1.67;;
50968;SDS011;36982;51.474;7.228;2022-09-09T12:01:57;2.03;;;0.95;;
50968;SDS011;36982;51.474;7.228;2022-09-09T12:07:00;6.22;;;1.90;;
50968;SDS011;36982;51.474;7.228;2022-09-09T12:17:41;4.22;;;1.80;;
50968;SDS011;36982;51.474;7.228;2022-09-09T12:20:20;2.35;;;0.90;;
50968;SDS011;36982;51.474;7.228;2022-09-09T12:36:58;2.12;;;0.70;;
50968;SDS011;36982;51.474;7.228;2022-09-09T12:39:34;3.55;;;1.00;;
50968;SDS011;36982;51.474;7.228;2022-09-09T12:42:18;4.18;;;2.60;;
50968;SDS011;36982;51.474;7.228;2022-09-09T12:44:55;1.65;;;0.93;;
50968;SDS011;36982;51.474;7.228;2022-09-09T12:47:24;5.20;;;2.20;;
50968;SDS011;36982;51.474;7.228;2022-09-09T12:49:59;3.62;;;1.37;;
50968;SDS011;36982;51.474;7.228;2022-09-09T12:52:30;3.50;;;2.03;;
50968;SDS011;36982;51.474;7.228;2022-09-09T12:55:01;3.58;;;2.58;;
50968;SDS011;36982;51.474;7.228;2022-09-09T12:57:31;3.70;;;2.58;;
50968;SDS011;36982;51.474;7.228;2022-09-09T13:00:04;2.92;;;1.58;;
50968;SDS011;36982;51.474;7.228;2022-09-09T13:02:33;3.35;;;1.42;;
50968;SDS011;36982;51.474;7.228;2022-09-09T13:05:13;2.53;;;1.37;;
50968;SDS011;36982;51.474;7.228;2022-09-09T13:07:41;3.62;;;1.00;;
50968;SDS011;36982;51.474;7.228;2022-09-09T13:10:10;2.25;;;1.15;;
50968;SDS011;36982;51.474;7.228;2022-09-09T13:12:37;3.22;;;1.95;;
50968;SDS011;36982;51.474;7.228;2022-09-09T13:15:03;6.72;;;3.92;;
50968;SDS011;36982;51.474;7.228;2022-09-09T13:17:36;6.37;;;2.87;;
50968;SDS011;36982;51.474;7.228;2022-09-09T13:20:01;4.82;;;2.05;;
50968;SDS011;36982;51.474;7.228;2022-09-09T13:22:31;8.40;;;5.20;;
50968;SDS011;36982;51.474;7.228;2022-09-09T13:27:35;4.45;;;2.40;;
50968;SDS011;36982;51.474;7.228;2022-09-09T13:30:19;5.22;;;1.33;;
50968;SDS011;36982;51.474;7.228;2022-09-09T13:32:47;2.10;;;0.80;;
50968;SDS011;36982;51.474;7.228;2022-09-09T13:38:18;2.83;;;1.30;;
50968;SDS011;36982;51.474;7.228;2022-09-09T13:41:06;2.83;;;1.33;;
50968;SDS011;36982;51.474;7.228;2022-09-09T13:43:36;2.20;;;1.20;;
50968;SDS011;36982;51.474;7.228;2022-09-09T13:49:17;3.40;;;1.10;;
50968;SDS011;36982;51.474;7.228;2022-09-09T13:51:46;4.35;;;1.08;;
50968;SDS011;36982;51.474;7.228;2022-09-09T13:54:14;4.45;;;1.30;;
50968;SDS011;36982;51.474;7.228;2022-09-09T13:56:41;1.90;;;0.98;;
50968;SDS011;36982;51.474;7.228;2022-09-09T13:59:11;2.95;;;1.17;;
50968;SDS011;36982;51.474;7.228;2022-09-09T14:01:38;2.15;;;1.33;;
50968;SDS011;36982;51.474;7.228;2022-09-09T14:04:05;3.00;;;1.10;;
50968;SDS011;36982;51.474;7.228;2022-09-09T14:06:31;3.27;;;1.30;;
50968;SDS011;36982;51.474;7.228;2022-09-09T14:09:00;3.12;;;1.30;;
50968;SDS011;36982;51.474;7.228;2022-09-09T14:11:25;2.25;;;1.30;;
50968;SDS011;36982;51.474;7.228;2022-09-09T14:13:51;2.07;;;0.90;;
50968;SDS011;36982;51.474;7.228;2022-09-09T14:16:17;4.37;;;1.30;;
50968;SDS011;36982;51.474;7.228;2022-09-09T14:18:43;4.87;;;1.40;;
50968;SDS011;36982;51.474;7.228;2022-09-09T14:21:10;2.13;;;1.20;;
50968;SDS011;36982;51.474;7.228;2022-09-09T14:23:36;2.70;;;1.00;;
50968;SDS011;36982;51.474;7.228;2022-09-09T14:26:03;3.35;;;0.93;;
50968;SDS011;36982;51.474;7.228;2022-09-09T14:28:29;2.58;;;1.10;;
50968;SDS011;36982;51.474;7.228;2022-09-09T14:30:58;2.55;;;1.73;;
50968;SDS011;36982;51.474;7.228;2022-09-09T14:33:28;1.65;;;0.90;;
50968;SDS011;36982;51.474;7.228;2022-09-09T14:35:55;3.05;;;1.23;;
50968;SDS011;36982;51.474;7.228;2022-09-09T14:38:28;3.87;;;1.35;;
50968;SDS011;36982;51.474;7.228;2022-09-09T14:40:55;2.47;;;1.20;;
50968;SDS011;36982;51.474;7.228;2022-09-09T14:43:23;3.17;;;1.30;;
50968;SDS011;36982;51.474;7.228;2022-09-09T14:45:49;2.12;;;1.10;;
50968;SDS011;36982;51.474;7.228;2022-09-09T14:48:16;3.20;;;1.30;;
50968;SDS011;36982;51.474;7.228;2022-09-09T14:50:42;3.58;;;1.37;;
50968;SDS011;36982;51.474;7.228;2022-09-09T14:53:08;2.60;;;1.27;;
50968;SDS011;36982;51.474;7.228;2022-09-09T14:55:35;4.95;;;1.20;;
50968;SDS011;36982;51.474;7.228;2022-09-09T14:58:01;4.28;;;1.60;;
50968;SDS011;36982;51.474;7.228;2022-09-09T15:00:27;3.25;;;1.65;;
50968;SDS011;36982;51.474;7.228;2022-09-09T15:02:53;1.98;;;1.48;;
50968;SDS011;36982;51.474;7.228;2022-09-09T15:05:19;3.87;;;1.58;;
50968;SDS011;36982;51.474;7.228;2022-09-09T15:07:45;1.87;;;1.10;;
50968;SDS011;36982;51.474;7.228;2022-09-09T15:10:11;3.33;;;1.80;;
50968;SDS011;36982;51.474;7.228;2022-09-09T15:12:37;2.67;;;1.98;;
50968;SDS011;36982;51.474;7.228;2022-09-09T15:15:04;2.90;;;1.40;;
50968;SDS011;36982;51.474;7.228;2022-09-09T15:17:30;1.98;;;1.20;;
50968;SDS011;36982;51.474;7.228;2022-09-09T15:19:56;3.03;;;1.52;;
50968;SDS011;36982;51.474;7.228;2022-09-09T15:22:22;2.75;;;1.73;;
50968;SDS011;36982;51.474;7.228;2022-09-09T15:24:49;3.72;;;1.77;;
50968;SDS011;36982;51.474;7.228;2022-09-09T15:27:15;5.70;;;2.17;;
50968;SDS011;36982;51.474;7.228;2022-09-09T15:29:40;2.45;;;1.42;;
50968;SDS011;36982;51.474;7.228;2022-09-09T15:32:06;3.10;;;1.00;;
50968;SDS011;36982;51.474;7.228;2022-09-09T15:34:32;1.83;;;0.93;;
50968;SDS011;36982;51.474;7.228;2022-09-09T15:36:58;2.10;;;1.00;;
50968;SDS011;36982;51.474;7.228;2022-09-09T15:39:25;2.07;;;0.80;;
50968;SDS011;36982;51.474;7.228;2022-09-09T15:41:51;2.33;;;0.80;;
50968;SDS011;36982;51.474;7.228;2022-09-09T15:44:17;1.67;;;0.90;;
50968;SDS011;36982;51.474;7.228;2022-09-09T15:46:50;1.90;;;0.90;;
50968;SDS011;36982;51.474;7.228;2022-09-09T15:49:25;1.33;;;0.90;;
50968;SDS011;36982;51.474;7.228;2022-09-09T15:51:55;1.40;;;0.80;;
50968;SDS011;36982;51.474;7.228;2022-09-09T15:54:28;2.40;;;1.30;;
50968;SDS011;36982;51.474;7.228;2022-09-09T15:56:57;2.03;;;0.90;;
50968;SDS011;36982;51.474;7.228;2022-09-09T15:59:25;1.80;;;1.00;;
50968;SDS011;36982;51.474;7.228;2022-09-09T16:01:52;1.87;;;1.10;;
50968;SDS011;36982;51.474;7.228;2022-09-09T16:04:20;1.23;;;0.70;;
50968;SDS011;36982;51.474;7.228;2022-09-09T16:06:48;3.23;;;1.10;;
50968;SDS011;36982;51.474;7.228;2022-09-09T16:09:15;1.77;;;0.60;;
50968;SDS011;36982;51.474;7.228;2022-09-09T16:11:41;2.40;;;1.03;;
50968;SDS011;36982;51.474;7.228;2022-09-09T16:14:06;1.03;;;0.80;;
50968;SDS011;36982;51.474;7.228;2022-09-09T16:16:32;2.10;;;0.70;;
50968;SDS011;36982;51.474;7.228;2022-09-09T16:19:00;1.53;;;0.70;;
50968;SDS011;36982;51.474;7.228;2022-09-09T16:21:33;0.87;;;0.70;;
50968;SDS011;36982;51.474;7.228;2022-09-09T16:24:08;3.20;;;0.87;;
50968;SDS011;36982;51.474;7.228;2022-09-09T16:26:36;2.07;;;0.70;;
50968;SDS011;36982;51.474;7.228;2022-09-09T16:29:03;2.00;;;1.00;;
50968;SDS011;36982;51.474;7.228;2022-09-09T16:31:30;2.90;;;1.27;;
50968;SDS011;36982;51.474;7.228;2022-09-09T16:33:57;1.53;;;0.90;;
50968;SDS011;36982;51.474;7.228;2022-09-09T16:36:23;2.07;;;0.70;;
50968;SDS011;36982;51.474;7.228;2022-09-09T16:38:54;2.20;;;1.17;;
50968;SDS011;36982;51.474;7.228;2022-09-09T16:41:20;2.83;;;0.83;;
50968;SDS011;36982;51.474;7.228;2022-09-09T16:43:47;1.07;;;0.90;;
50968;SDS011;36982;51.474;7.228;2022-09-09T16:46:18;4.67;;;1.13;;
50968;SDS011;36982;51.474;7.228;2022-09-09T16:48:45;1.60;;;1.03;;
50968;SDS011;36982;51.474;7.228;2022-09-09T16:51:19;2.63;;;1.27;;
50968;SDS011;36982;51.474;7.228;2022-09-09T16:53:49;1.87;;;1.03;;
50968;SDS011;36982;51.474;7.228;2022-09-09T16:56:17;2.90;;;0.97;;
50968;SDS011;36982;51.474;7.228;2022-09-09T16:58:55;2.10;;;1.17;;
50968;SDS011;36982;51.474;7.228;2022-09-09T17:01:23;1.87;;;0.80;;
50968;SDS011;36982;51.474;7.228;2022-09-09T17:03:56;2.70;;;1.00;;
50968;SDS011;36982;51.474;7.228;2022-09-09T17:06:23;1.97;;;1.43;;
50968;SDS011;36982;51.474;7.228;2022-09-09T17:11:29;3.67;;;2.10;;
50968;SDS011;36982;51.474;7.228;2022-09-09T17:13:54;1.70;;;1.20;;
50968;SDS011;36982;51.474;7.228;2022-09-09T17:16:23;2.47;;;1.30;;
50968;SDS011;36982;51.474;7.228;2022-09-09T17:18:52;2.23;;;1.10;;
50968;SDS011;36982;51.474;7.228;2022-09-09T17:21:19;1.83;;;1.10;;
50968;SDS011;36982;51.474;7.228;2022-09-09T17:23:47;2.60;;;1.27;;
50968;SDS011;36982;51.474;7.228;2022-09-09T17:26:15;2.83;;;1.60;;
50968;SDS011;36982;51.474;7.228;2022-09-09T17:28:44;2.30;;;1.30;;
50968;SDS011;36982;51.474;7.228;2022-09-09T17:31:17;1.47;;;1.10;;
50968;SDS011;36982;51.474;7.228;2022-09-09T17:33:45;1.77;;;1.00;;
50968;SDS011;36982;51.474;7.228;2022-09-09T17:36:14;2.83;;;1.40;;
50968;SDS011;36982;51.474;7.228;2022-09-09T17:38:42;2.17;;;1.50;;
50968;SDS011;36982;51.474;7.228;2022-09-09T17:43:34;2.80;;;1.50;;
50968;SDS011;36982;51.474;7.228;2022-09-09T17:48:34;3.57;;;1.23;;